sensor_id;sensor_type;location;lat;lon;timestamp;temperature;humidity
423;DHT22;198;48.752;9.180;2023-06-14T00:02:19;17.00;42.60
423;DHT22;198;48.752;9.180;2023-06-14T00:04:44;17.00;43.20
423;DHT22;198;48.752;9.180;2023-06-14T00:07:11;16.90;43.40
423;DHT22;198;48.752;9.180;2023-06-14T00:09:39;17.00;43.70
423;DHT22;198;48.752;9.180;2023-06-14T00:12:04;16.90;43.70
423;DHT22;198;48.752;9.180;2023-06-14T00:14:31;16.90;43.20
423;DHT22;198;48.752;9.180;2023-06-14T00:16:57;16.80;43.50
423;DHT22;198;48.752;9.180;2023-06-14T00:19:24;16.80;43.40
423;DHT22;198;48.752;9.180;2023-06-14T00:21:50;16.80;43.80
423;DHT22;198;48.752;9.180;2023-06-14T00:24:17;16.70;43.40
423;DHT22;198;48.752;9.180;2023-06-14T00:26:42;16.70;43.90
423;DHT22;198;48.752;9.180;2023-06-14T00:29:08;16.60;43.70
423;DHT22;198;48.752;9.180;2023-06-14T00:31:33;16.60;43.90
423;DHT22;198;48.752;9.180;2023-06-14T00:33:59;16.60;43.20
423;DHT22;198;48.752;9.180;2023-06-14T00:36:24;16.60;43.70
423;DHT22;198;48.752;9.180;2023-06-14T00:38:50;16.60;43.90
423;DHT22;198;48.752;9.180;2023-06-14T00:41:15;16.60;44.20
423;DHT22;198;48.752;9.180;2023-06-14T00:43:41;16.60;44.70
423;DHT22;198;48.752;9.180;2023-06-14T00:46:06;16.60;44.50
423;DHT22;198;48.752;9.180;2023-06-14T00:48:33;16.50;44.60
423;DHT22;198;48.752;9.180;2023-06-14T00:51:00;16.50;44.30
423;DHT22;198;48.752;9.180;2023-06-14T00:53:30;16.50;44.80
423;DHT22;198;48.752;9.180;2023-06-14T00:55:56;16.50;45.10
423;DHT22;198;48.752;9.180;2023-06-14T00:58:22;16.50;45.00
423;DHT22;198;48.752;9.180;2023-06-14T01:00:48;16.50;45.00
423;DHT22;198;48.752;9.180;2023-06-14T01:03:13;16.40;45.50
423;DHT22;198;48.752;9.180;2023-06-14T01:05:44;16.50;45.70
423;DHT22;198;48.752;9.180;2023-06-14T01:08:14;16.40;45.80
423;DHT22;198;48.752;9.180;2023-06-14T01:11:05;16.40;45.30
423;DHT22;198;48.752;9.180;2023-06-14T01:13:36;16.40;45.40
423;DHT22;198;48.752;9.180;2023-06-14T01:16:03;16.40;45.50
423;DHT22;198;48.752;9.180;2023-06-14T01:18:30;16.30;45.70
423;DHT22;198;48.752;9.180;2023-06-14T01:20:56;16.30;45.70
423;DHT22;198;48.752;9.180;2023-06-14T01:23:22;16.30;45.60
423;DHT22;198;48.752;9.180;2023-06-14T01:25:49;16.30;45.10
423;DHT22;198;48.752;9.180;2023-06-14T01:28:18;16.30;44.80
423;DHT22;198;48.752;9.180;2023-06-14T01:30:47;16.20;44.40
423;DHT22;198;48.752;9.180;2023-06-14T01:33:15;16.30;44.60
423;DHT22;198;48.752;9.180;2023-06-14T01:35:43;16.20;44.60
423;DHT22;198;48.752;9.180;2023-06-14T01:38:09;16.20;44.60
423;DHT22;198;48.752;9.180;2023-06-14T01:40:35;16.20;45.20
423;DHT22;198;48.752;9.180;2023-06-14T01:43:01;16.10;45.30
423;DHT22;198;48.752;9.180;2023-06-14T01:45:29;16.10;46.00
423;DHT22;198;48.752;9.180;2023-06-14T01:47:55;16.10;46.20
423;DHT22;198;48.752;9.180;2023-06-14T01:50:21;16.00;46.00
423;DHT22;198;48.752;9.180;2023-06-14T01:52:46;16.00;45.90
423;DHT22;198;48.752;9.180;2023-06-14T01:55:12;16.00;46.00
423;DHT22;198;48.752;9.180;2023-06-14T01:57:38;15.90;46.70
423;DHT22;198;48.752;9.180;2023-06-14T02:00:04;15.90;46.20
423;DHT22;198;48.752;9.180;2023-06-14T02:02:33;15.80;46.40
423;DHT22;198;48.752;9.180;2023-06-14T02:04:59;15.80;46.30
423;DHT22;198;48.752;9.180;2023-06-14T02:07:24;15.80;46.70
423;DHT22;198;48.752;9.180;2023-06-14T02:09:50;15.70;46.70
423;DHT22;198;48.752;9.180;2023-06-14T02:12:15;15.60;46.70
423;DHT22;198;48.752;9.180;2023-06-14T02:14:41;15.60;46.80
423;DHT22;198;48.752;9.180;2023-06-14T02:17:07;15.60;47.20
423;DHT22;198;48.752;9.180;2023-06-14T02:19:33;15.60;47.20
423;DHT22;198;48.752;9.180;2023-06-14T02:21:59;15.50;47.90
423;DHT22;198;48.752;9.180;2023-06-14T02:24:24;15.50;48.40
423;DHT22;198;48.752;9.180;2023-06-14T02:26:50;15.40;48.70
423;DHT22;198;48.752;9.180;2023-06-14T02:29:15;15.40;49.10
423;DHT22;198;48.752;9.180;2023-06-14T02:31:41;15.30;49.40
423;DHT22;198;48.752;9.180;2023-06-14T02:34:07;15.30;49.90
423;DHT22;198;48.752;9.180;2023-06-14T02:36:35;15.30;50.00
423;DHT22;198;48.752;9.180;2023-06-14T02:39:07;15.20;50.70
423;DHT22;198;48.752;9.180;2023-06-14T02:41:34;15.20;50.60
423;DHT22;198;48.752;9.180;2023-06-14T02:44:00;15.10;50.30
423;DHT22;198;48.752;9.180;2023-06-14T02:46:25;15.10;50.70
423;DHT22;198;48.752;9.180;2023-06-14T02:48:51;15.10;50.80
423;DHT22;198;48.752;9.180;2023-06-14T02:51:16;15.00;51.00
423;DHT22;198;48.752;9.180;2023-06-14T02:53:42;15.00;51.20
423;DHT22;198;48.752;9.180;2023-06-14T02:56:09;15.00;51.10
423;DHT22;198;48.752;9.180;2023-06-14T02:58:36;15.00;51.20
423;DHT22;198;48.752;9.180;2023-06-14T03:01:02;14.90;51.10
423;DHT22;198;48.752;9.180;2023-06-14T03:03:28;14.90;51.10
423;DHT22;198;48.752;9.180;2023-06-14T03:05:54;14.90;51.10
423;DHT22;198;48.752;9.180;2023-06-14T03:08:20;14.80;51.10
423;DHT22;198;48.752;9.180;2023-06-14T03:10:46;14.80;51.40
423;DHT22;198;48.752;9.180;2023-06-14T03:13:12;14.80;51.40
423;DHT22;198;48.752;9.180;2023-06-14T03:15:38;14.80;51.90
423;DHT22;198;48.752;9.180;2023-06-14T03:18:10;14.80;52.10
423;DHT22;198;48.752;9.180;2023-06-14T03:20:37;14.70;51.80
423;DHT22;198;48.752;9.180;2023-06-14T03:23:02;14.70;52.10
423;DHT22;198;48.752;9.180;2023-06-14T03:25:29;14.70;52.40
423;DHT22;198;48.752;9.180;2023-06-14T03:27:55;14.70;52.80
423;DHT22;198;48.752;9.180;2023-06-14T03:30:21;14.70;52.60
423;DHT22;198;48.752;9.180;2023-06-14T03:32:47;14.70;52.70
423;DHT22;198;48.752;9.180;2023-06-14T03:35:12;14.70;52.90
423;DHT22;198;48.752;9.180;2023-06-14T03:37:43;14.70;53.20
423;DHT22;198;48.752;9.180;2023-06-14T03:40:09;14.70;53.20
423;DHT22;198;48.752;9.180;2023-06-14T03:42:34;14.70;53.20
423;DHT22;198;48.752;9.180;2023-06-14T03:45:00;14.70;53.30
423;DHT22;198;48.752;9.180;2023-06-14T03:47:25;14.70;53.30
423;DHT22;198;48.752;9.180;2023-06-14T03:49:52;14.70;53.20
423;DHT22;198;48.752;9.180;2023-06-14T03:52:18;14.70;53.50
423;DHT22;198;48.752;9.180;2023-06-14T03:54:43;14.70;53.10
423;DHT22;198;48.752;9.180;2023-06-14T03:57:10;14.80;53.20
423;DHT22;198;48.752;9.180;2023-06-14T03:59:35;14.80;52.50
423;DHT22;198;48.752;9.180;2023-06-14T04:02:02;14.80;52.70
423;DHT22;198;48.752;9.180;2023-06-14T04:04:28;14.90;52.60
423;DHT22;198;48.752;9.180;2023-06-14T04:06:55;14.90;52.60
423;DHT22;198;48.752;9.180;2023-06-14T04:09:22;14.90;52.70
423;DHT22;198;48.752;9.180;2023-06-14T04:11:48;15.00;53.00
423;DHT22;198;48.752;9.180;2023-06-14T04:14:13;15.00;53.20
423;DHT22;198;48.752;9.180;2023-06-14T04:16:39;15.00;54.20
423;DHT22;198;48.752;9.180;2023-06-14T04:19:04;15.00;54.20
423;DHT22;198;48.752;9.180;2023-06-14T04:21:30;15.10;54.10
423;DHT22;198;48.752;9.180;2023-06-14T04:23:55;15.10;54.10
423;DHT22;198;48.752;9.180;2023-06-14T04:26:22;15.10;54.30
423;DHT22;198;48.752;9.180;2023-06-14T04:28:49;15.20;54.50
423;DHT22;198;48.752;9.180;2023-06-14T04:31:16;15.20;54.60
423;DHT22;198;48.752;9.180;2023-06-14T04:33:42;15.20;54.80
423;DHT22;198;48.752;9.180;2023-06-14T04:36:12;15.30;54.70
423;DHT22;198;48.752;9.180;2023-06-14T04:38:38;15.40;55.00
423;DHT22;198;48.752;9.180;2023-06-14T04:41:04;15.40;55.50
423;DHT22;198;48.752;9.180;2023-06-14T04:43:31;15.50;55.30
423;DHT22;198;48.752;9.180;2023-06-14T04:45:57;15.50;55.00
423;DHT22;198;48.752;9.180;2023-06-14T04:48:23;15.60;55.10
423;DHT22;198;48.752;9.180;2023-06-14T04:50:48;15.70;55.40
423;DHT22;198;48.752;9.180;2023-06-14T04:53:19;15.70;56.20
423;DHT22;198;48.752;9.180;2023-06-14T04:55:48;15.80;56.10
423;DHT22;198;48.752;9.180;2023-06-14T04:58:13;15.80;55.60
423;DHT22;198;48.752;9.180;2023-06-14T05:00:39;15.90;55.50
423;DHT22;198;48.752;9.180;2023-06-14T05:03:04;16.00;55.40
423;DHT22;198;48.752;9.180;2023-06-14T05:05:31;16.00;54.90
423;DHT22;198;48.752;9.180;2023-06-14T05:07:57;16.10;54.80
423;DHT22;198;48.752;9.180;2023-06-14T05:10:24;16.20;54.60
423;DHT22;198;48.752;9.180;2023-06-14T05:12:49;16.30;54.60
423;DHT22;198;48.752;9.180;2023-06-14T05:15:15;16.40;53.80
423;DHT22;198;48.752;9.180;2023-06-14T05:17:41;16.40;53.10
423;DHT22;198;48.752;9.180;2023-06-14T05:20:07;16.50;52.80
423;DHT22;198;48.752;9.180;2023-06-14T05:22:35;16.50;52.70
423;DHT22;198;48.752;9.180;2023-06-14T05:25:01;16.60;53.50
423;DHT22;198;48.752;9.180;2023-06-14T05:27:26;16.70;53.40
423;DHT22;198;48.752;9.180;2023-06-14T05:29:52;16.80;52.70
423;DHT22;198;48.752;9.180;2023-06-14T05:32:21;16.80;52.40
423;DHT22;198;48.752;9.180;2023-06-14T05:34:46;16.90;52.20
423;DHT22;198;48.752;9.180;2023-06-14T05:37:11;16.90;52.40
423;DHT22;198;48.752;9.180;2023-06-14T05:39:38;17.00;52.70
423;DHT22;198;48.752;9.180;2023-06-14T05:42:04;17.00;52.70
423;DHT22;198;48.752;9.180;2023-06-14T05:44:29;17.10;53.20
423;DHT22;198;48.752;9.180;2023-06-14T05:46:55;17.20;53.10
423;DHT22;198;48.752;9.180;2023-06-14T05:49:20;17.30;53.50
423;DHT22;198;48.752;9.180;2023-06-14T05:51:46;17.30;53.30
423;DHT22;198;48.752;9.180;2023-06-14T05:54:11;17.40;53.30
423;DHT22;198;48.752;9.180;2023-06-14T05:56:37;17.40;52.20
423;DHT22;198;48.752;9.180;2023-06-14T05:59:02;17.50;51.50
423;DHT22;198;48.752;9.180;2023-06-14T06:01:28;17.50;51.40
423;DHT22;198;48.752;9.180;2023-06-14T06:03:53;17.60;51.60
423;DHT22;198;48.752;9.180;2023-06-14T06:06:19;17.60;51.60
423;DHT22;198;48.752;9.180;2023-06-14T06:08:44;17.70;51.60
423;DHT22;198;48.752;9.180;2023-06-14T06:11:10;17.80;51.60
423;DHT22;198;48.752;9.180;2023-06-14T06:13:36;17.80;51.50
423;DHT22;198;48.752;9.180;2023-06-14T06:16:02;17.90;50.90
423;DHT22;198;48.752;9.180;2023-06-14T06:18:28;18.00;51.00
423;DHT22;198;48.752;9.180;2023-06-14T06:20:53;18.00;50.30
423;DHT22;198;48.752;9.180;2023-06-14T06:23:19;18.10;49.70
423;DHT22;198;48.752;9.180;2023-06-14T06:25:44;18.10;49.40
423;DHT22;198;48.752;9.180;2023-06-14T06:28:10;18.20;49.20
423;DHT22;198;48.752;9.180;2023-06-14T06:30:36;18.20;49.00
423;DHT22;198;48.752;9.180;2023-06-14T06:33:02;18.30;48.80
423;DHT22;198;48.752;9.180;2023-06-14T06:35:28;18.30;48.50
423;DHT22;198;48.752;9.180;2023-06-14T06:37:55;18.40;48.50
423;DHT22;198;48.752;9.180;2023-06-14T06:40:20;18.40;48.00
423;DHT22;198;48.752;9.180;2023-06-14T06:42:46;18.50;47.40
423;DHT22;198;48.752;9.180;2023-06-14T06:45:12;18.50;47.30
423;DHT22;198;48.752;9.180;2023-06-14T06:47:37;18.60;47.60
423;DHT22;198;48.752;9.180;2023-06-14T06:50:03;18.70;47.60
423;DHT22;198;48.752;9.180;2023-06-14T06:52:29;18.70;46.60
423;DHT22;198;48.752;9.180;2023-06-14T06:54:54;18.70;47.00
423;DHT22;198;48.752;9.180;2023-06-14T06:57:21;18.80;46.60
423;DHT22;198;48.752;9.180;2023-06-14T06:59:50;18.80;46.30
423;DHT22;198;48.752;9.180;2023-06-14T07:02:16;18.90;46.70
423;DHT22;198;48.752;9.180;2023-06-14T07:04:42;18.90;46.60
423;DHT22;198;48.752;9.180;2023-06-14T07:07:07;19.00;46.20
423;DHT22;198;48.752;9.180;2023-06-14T07:09:34;19.10;46.70
423;DHT22;198;48.752;9.180;2023-06-14T07:12:00;19.10;47.00
423;DHT22;198;48.752;9.180;2023-06-14T07:14:26;19.10;46.30
423;DHT22;198;48.752;9.180;2023-06-14T07:16:51;19.20;46.10
423;DHT22;198;48.752;9.180;2023-06-14T07:19:17;19.30;45.50
423;DHT22;198;48.752;9.180;2023-06-14T07:21:42;19.40;45.10
423;DHT22;198;48.752;9.180;2023-06-14T07:24:08;19.50;45.20
423;DHT22;198;48.752;9.180;2023-06-14T07:26:34;19.50;45.30
423;DHT22;198;48.752;9.180;2023-06-14T07:29:01;19.60;45.50
423;DHT22;198;48.752;9.180;2023-06-14T07:31:26;19.60;44.90
423;DHT22;198;48.752;9.180;2023-06-14T07:33:52;19.70;45.20
423;DHT22;198;48.752;9.180;2023-06-14T07:36:18;19.80;45.10
423;DHT22;198;48.752;9.180;2023-06-14T07:38:43;19.90;44.90
423;DHT22;198;48.752;9.180;2023-06-14T07:41:09;19.90;44.80
423;DHT22;198;48.752;9.180;2023-06-14T07:43:34;19.90;44.60
423;DHT22;198;48.752;9.180;2023-06-14T07:46:00;20.00;44.20
423;DHT22;198;48.752;9.180;2023-06-14T07:48:26;20.10;43.90
423;DHT22;198;48.752;9.180;2023-06-14T07:50:51;20.10;43.60
423;DHT22;198;48.752;9.180;2023-06-14T07:53:17;20.20;43.80
423;DHT22;198;48.752;9.180;2023-06-14T07:55:42;20.20;43.80
423;DHT22;198;48.752;9.180;2023-06-14T07:58:08;20.20;44.30
423;DHT22;198;48.752;9.180;2023-06-14T08:00:34;20.30;43.90
423;DHT22;198;48.752;9.180;2023-06-14T08:03:00;20.40;43.80
423;DHT22;198;48.752;9.180;2023-06-14T08:05:26;20.50;43.70
423;DHT22;198;48.752;9.180;2023-06-14T08:07:52;20.50;43.90
423;DHT22;198;48.752;9.180;2023-06-14T08:10:18;20.60;44.10
423;DHT22;198;48.752;9.180;2023-06-14T08:12:43;20.80;44.10
423;DHT22;198;48.752;9.180;2023-06-14T08:15:09;20.90;43.70
423;DHT22;198;48.752;9.180;2023-06-14T08:17:35;20.90;42.80
423;DHT22;198;48.752;9.180;2023-06-14T08:20:01;21.00;43.40
423;DHT22;198;48.752;9.180;2023-06-14T08:22:28;21.10;42.90
423;DHT22;198;48.752;9.180;2023-06-14T08:24:57;21.20;42.70
423;DHT22;198;48.752;9.180;2023-06-14T08:27:22;21.20;42.80
423;DHT22;198;48.752;9.180;2023-06-14T08:29:48;21.40;43.40
423;DHT22;198;48.752;9.180;2023-06-14T08:32:13;21.50;43.20
423;DHT22;198;48.752;9.180;2023-06-14T08:34:38;21.60;42.70
423;DHT22;198;48.752;9.180;2023-06-14T08:37:04;21.80;42.80
423;DHT22;198;48.752;9.180;2023-06-14T08:39:30;21.90;43.20
423;DHT22;198;48.752;9.180;2023-06-14T08:41:56;22.10;43.00
423;DHT22;198;48.752;9.180;2023-06-14T08:44:22;22.20;43.10
423;DHT22;198;48.752;9.180;2023-06-14T08:46:48;22.20;42.80
423;DHT22;198;48.752;9.180;2023-06-14T08:49:16;22.20;42.60
423;DHT22;198;48.752;9.180;2023-06-14T08:51:43;22.30;43.30
423;DHT22;198;48.752;9.180;2023-06-14T08:54:10;22.50;43.00
423;DHT22;198;48.752;9.180;2023-06-14T08:56:37;22.60;43.00
423;DHT22;198;48.752;9.180;2023-06-14T08:59:04;22.80;42.40
423;DHT22;198;48.752;9.180;2023-06-14T09:01:34;22.80;42.80
423;DHT22;198;48.752;9.180;2023-06-14T09:04:00;23.00;42.50
423;DHT22;198;48.752;9.180;2023-06-14T09:06:26;22.90;41.80
423;DHT22;198;48.752;9.180;2023-06-14T09:08:54;22.90;41.70
423;DHT22;198;48.752;9.180;2023-06-14T09:11:22;23.00;42.40
423;DHT22;198;48.752;9.180;2023-06-14T09:13:49;23.10;42.30
423;DHT22;198;48.752;9.180;2023-06-14T09:16:15;23.20;41.50
423;DHT22;198;48.752;9.180;2023-06-14T09:18:42;23.30;41.60
423;DHT22;198;48.752;9.180;2023-06-14T09:21:10;23.40;41.30
423;DHT22;198;48.752;9.180;2023-06-14T09:23:37;23.50;40.90
423;DHT22;198;48.752;9.180;2023-06-14T09:26:08;23.60;41.00
423;DHT22;198;48.752;9.180;2023-06-14T09:28:34;23.60;39.70
423;DHT22;198;48.752;9.180;2023-06-14T09:31:00;23.70;40.70
423;DHT22;198;48.752;9.180;2023-06-14T09:33:26;23.80;39.30
423;DHT22;198;48.752;9.180;2023-06-14T09:35:54;23.90;39.30
423;DHT22;198;48.752;9.180;2023-06-14T09:38:19;24.10;39.40
423;DHT22;198;48.752;9.180;2023-06-14T09:40:45;24.40;38.80
423;DHT22;198;48.752;9.180;2023-06-14T09:43:11;24.70;38.50
423;DHT22;198;48.752;9.180;2023-06-14T09:45:38;25.00;37.90
423;DHT22;198;48.752;9.180;2023-06-14T09:48:06;25.20;38.10
423;DHT22;198;48.752;9.180;2023-06-14T09:50:32;25.70;37.90
423;DHT22;198;48.752;9.180;2023-06-14T09:53:11;26.30;37.40
423;DHT22;198;48.752;9.180;2023-06-14T09:55:38;27.50;36.80
423;DHT22;198;48.752;9.180;2023-06-14T09:58:06;28.90;33.30
423;DHT22;198;48.752;9.180;2023-06-14T10:00:33;30.50;32.50
423;DHT22;198;48.752;9.180;2023-06-14T10:03:27;32.40;29.80
423;DHT22;198;48.752;9.180;2023-06-14T10:05:55;34.20;27.50
423;DHT22;198;48.752;9.180;2023-06-14T10:08:25;35.90;25.00
423;DHT22;198;48.752;9.180;2023-06-14T10:10:53;37.50;23.60
423;DHT22;198;48.752;9.180;2023-06-14T10:13:20;38.80;21.50
423;DHT22;198;48.752;9.180;2023-06-14T10:24:10;42.10;19.40
423;DHT22;198;48.752;9.180;2023-06-14T10:26:50;41.50;20.10
423;DHT22;198;48.752;9.180;2023-06-14T10:29:16;43.50;19.50
423;DHT22;198;48.752;9.180;2023-06-14T10:31:55;45.70;18.50
423;DHT22;198;48.752;9.180;2023-06-14T10:34:23;46.30;17.50
423;DHT22;198;48.752;9.180;2023-06-14T10:37:01;47.50;17.60
423;DHT22;198;48.752;9.180;2023-06-14T10:39:30;48.10;16.70
423;DHT22;198;48.752;9.180;2023-06-14T10:41:57;49.40;16.00
423;DHT22;198;48.752;9.180;2023-06-14T10:46:49;50.80;15.90
423;DHT22;198;48.752;9.180;2023-06-14T10:49:18;52.00;15.80
423;DHT22;198;48.752;9.180;2023-06-14T10:51:50;53.30;15.20
423;DHT22;198;48.752;9.180;2023-06-14T10:54:17;50.70;15.20
423;DHT22;198;48.752;9.180;2023-06-14T10:56:50;48.30;15.90
423;DHT22;198;48.752;9.180;2023-06-14T10:59:18;46.80;16.40
423;DHT22;198;48.752;9.180;2023-06-14T11:01:58;48.80;16.60
423;DHT22;198;48.752;9.180;2023-06-14T11:04:47;50.10;15.10
423;DHT22;198;48.752;9.180;2023-06-14T11:08:15;47.80;16.10
423;DHT22;198;48.752;9.180;2023-06-14T11:10:39;46.30;16.80
423;DHT22;198;48.752;9.180;2023-06-14T11:13:06;48.60;16.20
423;DHT22;198;48.752;9.180;2023-06-14T11:15:33;51.20;15.80
423;DHT22;198;48.752;9.180;2023-06-14T11:18:06;53.40;14.60
423;DHT22;198;48.752;9.180;2023-06-14T11:20:34;55.30;14.20
423;DHT22;198;48.752;9.180;2023-06-14T11:23:01;55.60;13.80
423;DHT22;198;48.752;9.180;2023-06-14T11:25:28;56.30;13.40
423;DHT22;198;48.752;9.180;2023-06-14T11:27:54;57.70;13.60
423;DHT22;198;48.752;9.180;2023-06-14T11:30:20;58.50;12.70
423;DHT22;198;48.752;9.180;2023-06-14T11:32:50;59.10;13.10
423;DHT22;198;48.752;9.180;2023-06-14T11:35:17;60.00;13.00
423;DHT22;198;48.752;9.180;2023-06-14T11:37:43;60.40;12.60
423;DHT22;198;48.752;9.180;2023-06-14T11:40:13;60.30;12.20
423;DHT22;198;48.752;9.180;2023-06-14T11:42:40;59.80;12.70
423;DHT22;198;48.752;9.180;2023-06-14T11:45:10;60.50;12.20
423;DHT22;198;48.752;9.180;2023-06-14T11:47:37;59.10;11.60
423;DHT22;198;48.752;9.180;2023-06-14T11:50:04;58.50;11.70
423;DHT22;198;48.752;9.180;2023-06-14T11:52:31;59.00;12.10
423;DHT22;198;48.752;9.180;2023-06-14T11:54:57;60.00;12.40
423;DHT22;198;48.752;9.180;2023-06-14T11:57:23;61.00;12.10
423;DHT22;198;48.752;9.180;2023-06-14T11:59:49;62.00;11.90
423;DHT22;198;48.752;9.180;2023-06-14T12:02:15;62.50;11.50
423;DHT22;198;48.752;9.180;2023-06-14T12:04:41;62.80;11.30
423;DHT22;198;48.752;9.180;2023-06-14T12:07:11;62.50;11.40
423;DHT22;198;48.752;9.180;2023-06-14T12:12:21;61.80;11.20
423;DHT22;198;48.752;9.180;2023-06-14T12:14:49;61.80;11.50
423;DHT22;198;48.752;9.180;2023-06-14T12:17:16;61.40;11.60
423;DHT22;198;48.752;9.180;2023-06-14T12:19:43;58.70;11.60
423;DHT22;198;48.752;9.180;2023-06-14T12:22:13;54.60;11.60
423;DHT22;198;48.752;9.180;2023-06-14T12:24:39;53.20;12.70
423;DHT22;198;48.752;9.180;2023-06-14T12:27:05;55.10;13.10
423;DHT22;198;48.752;9.180;2023-06-14T12:29:31;56.00;12.60
423;DHT22;198;48.752;9.180;2023-06-14T12:31:57;57.60;12.10
423;DHT22;198;48.752;9.180;2023-06-14T12:34:27;58.80;11.90
423;DHT22;198;48.752;9.180;2023-06-14T12:36:53;59.00;11.70
423;DHT22;198;48.752;9.180;2023-06-14T12:39:19;57.90;11.60
423;DHT22;198;48.752;9.180;2023-06-14T12:41:46;54.00;12.20
423;DHT22;198;48.752;9.180;2023-06-14T12:44:12;50.80;13.30
423;DHT22;198;48.752;9.180;2023-06-14T12:46:38;48.80;13.80
423;DHT22;198;48.752;9.180;2023-06-14T12:49:09;49.70;14.10
423;DHT22;198;48.752;9.180;2023-06-14T12:51:35;48.70;14.00
423;DHT22;198;48.752;9.180;2023-06-14T12:54:00;46.80;14.70
423;DHT22;198;48.752;9.180;2023-06-14T12:56:26;45.80;15.50
423;DHT22;198;48.752;9.180;2023-06-14T12:58:51;48.20;15.50
423;DHT22;198;48.752;9.180;2023-06-14T13:01:17;50.10;15.30
423;DHT22;198;48.752;9.180;2023-06-14T13:03:43;51.80;13.50
423;DHT22;198;48.752;9.180;2023-06-14T13:06:08;53.90;13.30
423;DHT22;198;48.752;9.180;2023-06-14T13:08:34;53.60;12.90
423;DHT22;198;48.752;9.180;2023-06-14T13:10:59;53.80;13.30
423;DHT22;198;48.752;9.180;2023-06-14T13:13:25;55.30;13.10
423;DHT22;198;48.752;9.180;2023-06-14T13:15:51;54.70;13.20
423;DHT22;198;48.752;9.180;2023-06-14T13:18:16;55.00;12.60
423;DHT22;198;48.752;9.180;2023-06-14T13:20:42;56.40;12.70
423;DHT22;198;48.752;9.180;2023-06-14T13:23:08;57.60;12.60
423;DHT22;198;48.752;9.180;2023-06-14T13:25:35;58.60;12.70
423;DHT22;198;48.752;9.180;2023-06-14T13:28:01;59.40;12.20
423;DHT22;198;48.752;9.180;2023-06-14T13:30:26;59.80;11.40
423;DHT22;198;48.752;9.180;2023-06-14T13:32:52;59.80;11.30
423;DHT22;198;48.752;9.180;2023-06-14T13:35:18;60.60;11.80
423;DHT22;198;48.752;9.180;2023-06-14T13:37:44;61.40;12.20
423;DHT22;198;48.752;9.180;2023-06-14T13:40:11;61.60;11.80
423;DHT22;198;48.752;9.180;2023-06-14T13:42:36;61.40;11.40
423;DHT22;198;48.752;9.180;2023-06-14T13:45:03;61.30;11.10
423;DHT22;198;48.752;9.180;2023-06-14T13:47:29;61.50;11.40
423;DHT22;198;48.752;9.180;2023-06-14T13:49:55;60.50;11.90
423;DHT22;198;48.752;9.180;2023-06-14T13:52:21;60.20;11.90
423;DHT22;198;48.752;9.180;2023-06-14T13:54:47;60.50;12.30
423;DHT22;198;48.752;9.180;2023-06-14T13:57:12;60.40;11.90
423;DHT22;198;48.752;9.180;2023-06-14T13:59:38;60.80;11.90
423;DHT22;198;48.752;9.180;2023-06-14T14:02:05;60.70;11.70
423;DHT22;198;48.752;9.180;2023-06-14T14:04:31;57.70;11.80
423;DHT22;198;48.752;9.180;2023-06-14T14:06:56;56.60;12.50
423;DHT22;198;48.752;9.180;2023-06-14T14:09:22;55.00;12.00
423;DHT22;198;48.752;9.180;2023-06-14T14:11:48;51.00;12.80
423;DHT22;198;48.752;9.180;2023-06-14T14:14:14;47.60;14.50
423;DHT22;198;48.752;9.180;2023-06-14T14:16:40;44.70;15.30
423;DHT22;198;48.752;9.180;2023-06-14T14:19:05;42.70;16.20
423;DHT22;198;48.752;9.180;2023-06-14T14:21:32;42.00;17.00
423;DHT22;198;48.752;9.180;2023-06-14T14:23:58;40.80;17.40
423;DHT22;198;48.752;9.180;2023-06-14T14:26:23;39.80;17.80
423;DHT22;198;48.752;9.180;2023-06-14T14:28:50;41.60;17.60
423;DHT22;198;48.752;9.180;2023-06-14T14:31:16;45.00;16.90
423;DHT22;198;48.752;9.180;2023-06-14T14:33:41;47.50;15.30
423;DHT22;198;48.752;9.180;2023-06-14T14:36:07;48.60;14.50
423;DHT22;198;48.752;9.180;2023-06-14T14:38:33;49.90;15.20
423;DHT22;198;48.752;9.180;2023-06-14T14:40:58;52.10;14.80
423;DHT22;198;48.752;9.180;2023-06-14T14:43:24;53.40;14.00
423;DHT22;198;48.752;9.180;2023-06-14T14:45:49;54.50;13.80
423;DHT22;198;48.752;9.180;2023-06-14T14:48:15;55.50;13.60
423;DHT22;198;48.752;9.180;2023-06-14T14:50:40;55.60;13.00
423;DHT22;198;48.752;9.180;2023-06-14T14:53:06;56.20;12.90
423;DHT22;198;48.752;9.180;2023-06-14T14:55:32;56.10;12.70
423;DHT22;198;48.752;9.180;2023-06-14T14:58:00;56.80;13.00
423;DHT22;198;48.752;9.180;2023-06-14T15:00:26;56.60;13.10
423;DHT22;198;48.752;9.180;2023-06-14T15:02:51;56.70;13.00
423;DHT22;198;48.752;9.180;2023-06-14T15:05:17;57.00;13.00
423;DHT22;198;48.752;9.180;2023-06-14T15:07:42;57.00;11.90
423;DHT22;198;48.752;9.180;2023-06-14T15:10:10;55.30;12.50
423;DHT22;198;48.752;9.180;2023-06-14T15:12:35;55.40;12.80
423;DHT22;198;48.752;9.180;2023-06-14T15:15:02;55.40;12.60
423;DHT22;198;48.752;9.180;2023-06-14T15:17:27;54.20;12.50
423;DHT22;198;48.752;9.180;2023-06-14T15:19:53;50.60;13.00
423;DHT22;198;48.752;9.180;2023-06-14T15:22:18;47.60;14.30
423;DHT22;198;48.752;9.180;2023-06-14T15:24:44;46.20;15.60
423;DHT22;198;48.752;9.180;2023-06-14T15:27:11;45.90;15.70
423;DHT22;198;48.752;9.180;2023-06-14T15:29:38;47.20;15.50
423;DHT22;198;48.752;9.180;2023-06-14T15:32:05;48.80;15.10
423;DHT22;198;48.752;9.180;2023-06-14T15:34:31;49.40;14.80
423;DHT22;198;48.752;9.180;2023-06-14T15:36:56;49.50;14.50
423;DHT22;198;48.752;9.180;2023-06-14T15:39:22;49.80;14.70
423;DHT22;198;48.752;9.180;2023-06-14T15:41:49;49.50;14.80
423;DHT22;198;48.752;9.180;2023-06-14T15:44:15;49.80;14.70
423;DHT22;198;48.752;9.180;2023-06-14T15:46:40;49.20;14.60
423;DHT22;198;48.752;9.180;2023-06-14T15:49:09;49.20;14.40
423;DHT22;198;48.752;9.180;2023-06-14T15:51:36;49.60;14.50
423;DHT22;198;48.752;9.180;2023-06-14T15:54:01;50.30;14.70
423;DHT22;198;48.752;9.180;2023-06-14T15:56:27;50.90;14.00
423;DHT22;198;48.752;9.180;2023-06-14T15:58:52;50.30;13.90
423;DHT22;198;48.752;9.180;2023-06-14T16:01:18;50.40;14.20
423;DHT22;198;48.752;9.180;2023-06-14T16:03:43;50.30;14.20
423;DHT22;198;48.752;9.180;2023-06-14T16:06:09;48.50;14.40
423;DHT22;198;48.752;9.180;2023-06-14T16:08:34;45.60;15.50
423;DHT22;198;48.752;9.180;2023-06-14T16:11:00;42.80;16.20
423;DHT22;198;48.752;9.180;2023-06-14T16:13:25;40.60;17.40
423;DHT22;198;48.752;9.180;2023-06-14T16:15:51;39.30;18.40
423;DHT22;198;48.752;9.180;2023-06-14T16:18:16;39.30;18.40
423;DHT22;198;48.752;9.180;2023-06-14T16:20:42;38.80;18.60
423;DHT22;198;48.752;9.180;2023-06-14T16:23:07;39.80;18.50
423;DHT22;198;48.752;9.180;2023-06-14T16:25:33;40.30;17.60
423;DHT22;198;48.752;9.180;2023-06-14T16:27:58;40.70;18.20
423;DHT22;198;48.752;9.180;2023-06-14T16:30:25;41.40;17.80
423;DHT22;198;48.752;9.180;2023-06-14T16:32:50;42.30;17.70
423;DHT22;198;48.752;9.180;2023-06-14T16:35:16;43.00;17.30
423;DHT22;198;48.752;9.180;2023-06-14T16:37:41;43.10;16.40
423;DHT22;198;48.752;9.180;2023-06-14T16:40:07;43.20;16.90
423;DHT22;198;48.752;9.180;2023-06-14T16:42:33;43.40;17.10
423;DHT22;198;48.752;9.180;2023-06-14T16:44:59;43.60;16.90